createdAt,value
2022-12-04T00:02:12.115Z,99378.75
2022-12-04T00:04:38.672Z,99383.91
2022-12-04T00:07:05.436Z,99379.66
2022-12-04T00:09:31.824Z,99376.91
2022-12-04T00:11:58.221Z,99382.13
2022-12-04T00:14:24.625Z,99386.56
2022-12-04T00:16:51.182Z,99383.56
2022-12-04T00:19:17.828Z,99386.94
2022-12-04T00:21:44.277Z,99388.31
2022-12-04T00:24:10.694Z,99383.25
2022-12-04T00:26:37.560Z,99385.22
2022-12-04T00:29:03.941Z,99387.09
2022-12-04T00:31:31.537Z,99397.22
2022-12-04T00:33:58.517Z,99394.50
2022-12-04T00:36:25.052Z,99394.72
2022-12-04T00:38:51.471Z,99394.91
2022-12-04T00:41:17.887Z,99399.25
2022-12-04T00:43:44.336Z,99395.41
2022-12-04T00:46:10.865Z,99388.47
2022-12-04T00:48:37.381Z,99390.78
2022-12-04T00:51:03.781Z,99394.69
2022-12-04T00:53:30.264Z,99377.34
2022-12-04T00:55:56.635Z,99374.94
2022-12-04T00:58:23.532Z,99385.22
2022-12-04T01:00:49.945Z,99391.81
2022-12-04T01:03:16.856Z,99392.28
2022-12-04T01:05:43.388Z,99399.66
2022-12-04T01:08:13.111Z,99382.75
2022-12-04T01:10:39.566Z,99390.91
2022-12-04T01:13:06.107Z,99396.47
2022-12-04T01:15:32.832Z,99389.53
2022-12-04T01:17:59.394Z,99399.44
2022-12-04T01:20:28.239Z,99396.72
2022-12-04T01:22:54.874Z,99395.59
2022-12-04T01:25:21.315Z,99396.06
2022-12-04T01:27:47.813Z,99384.75
2022-12-04T01:30:14.176Z,99383.34
2022-12-04T01:32:40.522Z,99387.09
2022-12-04T01:35:08.227Z,99386.19
2022-12-04T01:37:34.651Z,99381.88
2022-12-04T01:40:03.080Z,99378.38
2022-12-04T01:42:29.512Z,99380.91
2022-12-04T01:44:55.916Z,99376.78
2022-12-04T01:47:22.568Z,99376.66
2022-12-04T01:49:49.461Z,99372.13
2022-12-04T01:52:15.921Z,99380.13
2022-12-04T01:54:42.866Z,99377.88
2022-12-04T01:57:09.370Z,99375.47
2022-12-04T01:59:36.743Z,99389.56
2022-12-04T02:02:03.292Z,99382.13
2022-12-04T02:04:31.466Z,99384.13
2022-12-04T02:06:58.072Z,99391.28
2022-12-04T02:09:26.744Z,99384.88
2022-12-04T02:11:53.767Z,99383.75
2022-12-04T02:14:20.670Z,99364.84
2022-12-04T02:16:47.273Z,99374.91
2022-12-04T02:19:14.118Z,99382.69
2022-12-04T02:21:40.640Z,99377.50
2022-12-04T02:24:07.691Z,99370.72
2022-12-04T02:26:36.494Z,99375.88
2022-12-04T02:29:03.071Z,99377.09
2022-12-04T02:31:29.974Z,99384.28
2022-12-04T02:33:56.566Z,99384.06
2022-12-04T02:36:23.065Z,99378.13
2022-12-04T02:38:49.481Z,99382.72
2022-12-04T02:41:16.331Z,99379.75
2022-12-04T02:43:43.115Z,99374.19
2022-12-04T02:46:09.591Z,99380.59
2022-12-04T02:48:36.127Z,99385.19
2022-12-04T02:51:03.299Z,99381.88
2022-12-04T02:53:29.675Z,99381.03
2022-12-04T02:55:56.094Z,99376.56
2022-12-04T02:58:22.452Z,99372.72
2022-12-04T03:00:48.862Z,99370.78
2022-12-04T03:03:15.310Z,99365.00
2022-12-04T03:05:41.725Z,99364.34
2022-12-04T03:08:08.333Z,99367.50
2022-12-04T03:10:36.216Z,99365.78
2022-12-04T03:13:03.099Z,99369.63
2022-12-04T03:15:29.641Z,99359.72
2022-12-04T03:17:56.999Z,99363.22
2022-12-04T03:20:23.819Z,99359.31
2022-12-04T03:22:50.906Z,99364.69
2022-12-04T03:25:17.289Z,99371.41
2022-12-04T03:27:43.704Z,99364.84
2022-12-04T03:30:10.105Z,99369.78
2022-12-04T03:32:36.694Z,99374.97
2022-12-04T03:35:03.182Z,99369.97
2022-12-04T03:37:29.603Z,99362.75
2022-12-04T03:39:56.472Z,99366.69
2022-12-04T03:42:23.228Z,99369.88
2022-12-04T03:44:49.599Z,99372.69
2022-12-04T03:47:16.011Z,99358.94
2022-12-04T03:49:42.446Z,99360.88
2022-12-04T03:52:09.151Z,99351.66
2022-12-04T03:54:35.729Z,99367.41
2022-12-04T03:57:02.133Z,99358.69
2022-12-04T03:59:28.565Z,99356.72
2022-12-04T04:01:55.555Z,99359.00
2022-12-04T04:04:22.008Z,99350.03
2022-12-04T04:06:48.646Z,99351.13
2022-12-04T04:09:15.158Z,99356.13
2022-12-04T04:11:41.484Z,99359.13
2022-12-04T04:14:08.327Z,99341.66
2022-12-04T04:16:34.898Z,99350.97
2022-12-04T04:19:01.277Z,99350.53
2022-12-04T04:21:27.651Z,99348.59
2022-12-04T04:23:54.158Z,99350.59
2022-12-04T04:26:21.062Z,99344.50
2022-12-04T04:28:47.551Z,99356.38
2022-12-04T04:31:13.987Z,99355.81
2022-12-04T04:33:40.386Z,99345.84
2022-12-04T04:36:06.860Z,99338.72
2022-12-04T04:38:34.032Z,99342.69
2022-12-04T04:41:00.422Z,99352.47
2022-12-04T04:43:27.067Z,99350.78
2022-12-04T04:45:53.477Z,99346.59
2022-12-04T04:48:19.858Z,99350.16
2022-12-04T04:50:46.405Z,99356.56
2022-12-04T04:53:12.826Z,99349.50
2022-12-04T04:55:39.223Z,99348.28
2022-12-04T04:58:05.647Z,99348.16
2022-12-04T05:00:32.084Z,99347.91
2022-12-04T05:02:58.787Z,99347.00
2022-12-04T05:05:25.378Z,99341.69
2022-12-04T05:07:51.848Z,99334.75
2022-12-04T05:10:18.384Z,99335.00
2022-12-04T05:12:44.971Z,99325.19
2022-12-04T05:15:13.727Z,99324.09
2022-12-04T05:17:40.105Z,99335.09
2022-12-04T05:20:06.647Z,99332.31
2022-12-04T05:22:33.046Z,99338.81
2022-12-04T05:24:59.386Z,99335.91
2022-12-04T05:27:25.906Z,99335.63
2022-12-04T05:29:52.614Z,99333.13
2022-12-04T05:32:19.141Z,99347.06
2022-12-04T05:34:45.560Z,99356.19
2022-12-04T05:37:12.043Z,99346.56
2022-12-04T05:39:38.590Z,99348.44
2022-12-04T05:42:05.041Z,99349.88
2022-12-04T05:44:31.465Z,99357.31
2022-12-04T05:46:57.905Z,99345.38
2022-12-04T05:49:24.474Z,99343.78
2022-12-04T05:51:51.028Z,99349.78
2022-12-04T05:54:17.551Z,99343.22
2022-12-04T05:56:44.014Z,99347.06
2022-12-04T05:59:10.577Z,99346.34
2022-12-04T06:01:37.054Z,99354.38
2022-12-04T06:04:03.657Z,99350.53
2022-12-04T06:06:30.153Z,99347.91
2022-12-04T06:08:56.598Z,99348.34
2022-12-04T06:11:22.986Z,99348.78
2022-12-04T06:13:49.420Z,99349.44
2022-12-04T06:16:15.876Z,99358.34
2022-12-04T06:18:42.384Z,99370.88
2022-12-04T06:21:08.868Z,99370.66
2022-12-04T06:23:35.271Z,99374.13
2022-12-04T06:26:06.822Z,99374.44
2022-12-04T06:28:33.627Z,99366.53
2022-12-04T06:31:00.231Z,99381.63
2022-12-04T06:33:26.666Z,99380.88
2022-12-04T06:35:53.091Z,99372.63
2022-12-04T06:38:19.445Z,99380.09
2022-12-04T06:40:46.063Z,99374.66
2022-12-04T06:43:12.429Z,99371.50
2022-12-04T06:45:39.154Z,99376.47
2022-12-04T06:48:05.809Z,99380.09
2022-12-04T06:50:32.264Z,99374.19
2022-12-04T06:53:02.322Z,99381.72
2022-12-04T06:55:33.112Z,99370.38
2022-12-04T06:57:59.546Z,99373.13
2022-12-04T07:00:25.969Z,99374.53
2022-12-04T07:02:52.741Z,99377.88
2022-12-04T07:05:19.241Z,99387.13
2022-12-04T07:07:45.744Z,99382.91
2022-12-04T07:10:12.316Z,99390.19
2022-12-04T07:12:38.731Z,99396.34
2022-12-04T07:15:05.389Z,99393.63
2022-12-04T07:17:32.763Z,99390.31
2022-12-04T07:19:59.230Z,99392.25
2022-12-04T07:22:25.681Z,99392.88
2022-12-04T07:24:52.221Z,99390.66
2022-12-04T07:27:18.630Z,99394.03
2022-12-04T07:29:45.066Z,99407.72
2022-12-04T07:32:11.525Z,99401.69
2022-12-04T07:34:37.973Z,99391.47
2022-12-04T07:37:04.389Z,99385.81
2022-12-04T07:39:30.864Z,99395.53
2022-12-04T07:41:57.355Z,99399.00
2022-12-04T07:44:23.756Z,99395.97
2022-12-04T07:46:50.273Z,99394.00
2022-12-04T07:49:16.713Z,99406.50
2022-12-04T07:51:43.272Z,99396.13
2022-12-04T07:54:09.701Z,99397.16
2022-12-04T07:56:36.082Z,99397.94
2022-12-04T07:59:02.418Z,99390.09
2022-12-04T08:01:29.359Z,99402.69
2022-12-04T08:03:55.877Z,99397.47
2022-12-04T08:06:22.315Z,99402.59
2022-12-04T08:08:48.735Z,99395.16
2022-12-04T08:11:15.125Z,99400.59
2022-12-04T08:13:41.468Z,99401.31
2022-12-04T08:16:08.010Z,99402.97
2022-12-04T08:18:34.398Z,99404.88
2022-12-04T08:21:01.055Z,99402.34
2022-12-04T08:23:27.679Z,99391.47
2022-12-04T08:25:54.593Z,99395.91
2022-12-04T08:28:20.948Z,99393.97
2022-12-04T08:30:47.426Z,99386.97
2022-12-04T08:33:13.930Z,99384.84
2022-12-04T08:35:40.984Z,99387.13
2022-12-04T08:38:07.511Z,99383.00
2022-12-04T08:40:34.093Z,99380.25
2022-12-04T08:43:00.644Z,99389.44
2022-12-04T08:45:27.158Z,99398.00
2022-12-04T08:47:53.877Z,99396.69
2022-12-04T08:50:20.494Z,99400.34
2022-12-04T08:52:47.074Z,99411.31
2022-12-04T08:55:13.650Z,99409.16
2022-12-04T08:57:40.061Z,99397.91
2022-12-04T09:00:07.226Z,99402.75
2022-12-04T09:02:34.132Z,99414.06
2022-12-04T09:05:00.541Z,99407.81
2022-12-04T09:07:27.121Z,99403.81
2022-12-04T09:09:53.806Z,99408.63
2022-12-04T09:12:23.168Z,99405.22
2022-12-04T09:14:52.918Z,99405.81
2022-12-04T09:17:19.776Z,99400.56
2022-12-04T09:19:46.813Z,99399.09
2022-12-04T09:22:13.696Z,99392.50
2022-12-04T09:24:41.070Z,99394.34
2022-12-04T09:27:14.452Z,99405.72
2022-12-04T09:29:41.901Z,99403.53
2022-12-04T09:32:08.382Z,99392.25
2022-12-04T09:34:39.733Z,99399.38
2022-12-04T09:37:06.800Z,99391.19
2022-12-04T09:39:35.464Z,99388.63
2022-12-04T09:42:02.372Z,99398.03
2022-12-04T09:44:29.285Z,99402.25
2022-12-04T09:46:56.069Z,99398.16
2022-12-04T09:49:22.905Z,99389.44
2022-12-04T09:51:53.808Z,99394.38
2022-12-04T09:54:20.340Z,99387.31
2022-12-04T09:56:47.205Z,99389.06
2022-12-04T09:59:14.126Z,99386.25
2022-12-04T10:01:46.327Z,99391.22
2022-12-04T10:04:13.649Z,99391.94
2022-12-04T10:06:40.592Z,99386.34
2022-12-04T10:09:07.466Z,99385.78
2022-12-04T10:11:34.839Z,99369.47
2022-12-04T10:14:01.941Z,99377.88
2022-12-04T10:16:29.163Z,99369.66
2022-12-04T10:18:55.706Z,99378.25
2022-12-04T10:21:22.501Z,99371.91
2022-12-04T10:23:49.344Z,99369.13
2022-12-04T10:26:15.997Z,99372.19
2022-12-04T10:28:42.364Z,99368.13
2022-12-04T10:31:09.071Z,99360.56
2022-12-04T10:33:35.975Z,99360.78
2022-12-04T10:36:02.574Z,99358.78
2022-12-04T10:38:28.965Z,99352.88
2022-12-04T10:40:55.576Z,99355.69
2022-12-04T10:43:22.379Z,99359.84
2022-12-04T10:45:48.887Z,99354.03
2022-12-04T10:48:17.316Z,99364.13
2022-12-04T10:50:43.798Z,99355.53
2022-12-04T10:53:13.721Z,99367.28
2022-12-04T10:55:40.601Z,99352.59
2022-12-04T10:58:07.026Z,99349.69
2022-12-04T11:00:33.553Z,99349.00
2022-12-04T11:03:00.216Z,99342.97
2022-12-04T11:05:26.727Z,99340.63
2022-12-04T11:07:53.155Z,99342.59
2022-12-04T11:10:22.065Z,99342.13
2022-12-04T11:12:48.518Z,99344.47
2022-12-04T11:15:14.953Z,99352.88
2022-12-04T11:17:41.422Z,99344.22
2022-12-04T11:20:08.237Z,99339.09
2022-12-04T11:22:34.739Z,99325.56
2022-12-04T11:25:01.204Z,99325.66
2022-12-04T11:27:27.670Z,99327.34
2022-12-04T11:29:54.288Z,99316.53
2022-12-04T11:32:21.378Z,99314.72
2022-12-04T11:34:49.235Z,99315.38
2022-12-04T11:37:16.245Z,99314.41
2022-12-04T11:39:42.751Z,99312.72
2022-12-04T11:42:10.694Z,99302.59
2022-12-04T11:44:37.152Z,99306.94
2022-12-04T11:47:04.998Z,99296.72
2022-12-04T11:49:32.551Z,99296.25
2022-12-04T11:51:59.895Z,99293.13
2022-12-04T11:54:27.776Z,99292.66
2022-12-04T11:56:56.383Z,99289.19
2022-12-04T11:59:23.547Z,99284.63
2022-12-04T12:01:56.282Z,99288.34
2022-12-04T12:04:26.653Z,99285.06
2022-12-04T12:06:53.105Z,99284.19
2022-12-04T12:09:20.220Z,99287.84
2022-12-04T12:11:47.722Z,99281.88
2022-12-04T12:14:14.166Z,99284.66
2022-12-04T12:16:40.769Z,99282.13
2022-12-04T12:19:07.726Z,99286.69
2022-12-04T12:21:35.387Z,99287.56
2022-12-04T12:24:02.191Z,99273.28
2022-12-04T12:26:29.923Z,99280.44
2022-12-04T12:28:56.446Z,99284.59
2022-12-04T12:31:23.559Z,99289.50
2022-12-04T12:33:51.552Z,99280.78
2022-12-04T12:36:19.770Z,99277.78
2022-12-04T12:38:46.453Z,99277.13
2022-12-04T12:41:13.545Z,99272.81
2022-12-04T12:43:40.641Z,99270.91
2022-12-04T12:46:07.550Z,99261.22
2022-12-04T12:48:34.799Z,99259.78
2022-12-04T12:51:28.564Z,99254.56
2022-12-04T12:53:48.812Z,99264.44
2022-12-04T12:56:15.347Z,99264.22
2022-12-04T12:58:42.252Z,99257.09
2022-12-04T13:01:09.471Z,99267.22
2022-12-04T13:03:37.030Z,99258.84
2022-12-04T13:06:03.743Z,99264.97
2022-12-04T13:08:30.272Z,99269.91
2022-12-04T13:10:56.666Z,99264.34
2022-12-04T13:13:23.096Z,99265.06
2022-12-04T13:15:50.264Z,99270.72
2022-12-04T13:18:16.614Z,99264.97
2022-12-04T13:20:43.090Z,99272.47
2022-12-04T13:23:11.955Z,99267.84
2022-12-04T13:25:38.570Z,99269.63
2022-12-04T13:28:05.222Z,99272.34
2022-12-04T13:30:31.654Z,99261.38
2022-12-04T13:32:58.341Z,99263.94
2022-12-04T13:35:24.893Z,99272.00
2022-12-04T13:37:51.262Z,99264.69
2022-12-04T13:40:17.687Z,99260.91
2022-12-04T13:42:46.421Z,99265.50
2022-12-04T13:45:12.946Z,99276.84
2022-12-04T13:47:39.455Z,99273.16
2022-12-04T13:50:06.630Z,99276.56
2022-12-04T13:52:33.063Z,99273.47
2022-12-04T13:54:59.488Z,99277.34
2022-12-04T13:57:25.994Z,99274.41
2022-12-04T13:59:52.344Z,99267.66
2022-12-04T14:02:18.814Z,99273.69
2022-12-04T14:04:45.421Z,99279.88
2022-12-04T14:07:12.354Z,99278.56
2022-12-04T14:09:39.235Z,99280.53
2022-12-04T14:12:09.364Z,99282.94
2022-12-04T14:14:36.101Z,99286.34
2022-12-04T14:17:02.527Z,99290.91
2022-12-04T14:19:29.831Z,99291.50
2022-12-04T14:21:56.610Z,99297.09
2022-12-04T14:24:23.133Z,99292.88
2022-12-04T14:27:10.582Z,99295.56
2022-12-04T14:29:38.648Z,99301.81
2022-12-04T14:32:06.655Z,99299.13
2022-12-04T14:34:33.203Z,99303.22
2022-12-04T14:37:00.048Z,99305.75
2022-12-04T14:39:26.852Z,99303.91
2022-12-04T14:42:00.417Z,99304.84
2022-12-04T14:44:31.047Z,99302.19
2022-12-04T14:46:58.060Z,99301.09
2022-12-04T14:49:27.873Z,99290.31
2022-12-04T14:51:56.588Z,99288.22
2022-12-04T14:54:23.345Z,99288.75
2022-12-04T14:56:50.389Z,99286.50
2022-12-04T14:59:17.359Z,99280.91
2022-12-04T15:01:44.129Z,99281.22
2022-12-04T15:04:13.651Z,99275.81
2022-12-04T15:06:40.513Z,99273.44
2022-12-04T15:09:07.064Z,99272.94
2022-12-04T15:11:34.260Z,99268.94
2022-12-04T15:14:01.181Z,99266.44
2022-12-04T15:16:30.246Z,99267.88
2022-12-04T15:18:57.165Z,99261.63
2022-12-04T15:21:24.067Z,99265.41
2022-12-04T15:23:51.473Z,99262.50
2022-12-04T15:26:18.206Z,99261.75
2022-12-04T15:28:45.163Z,99264.69
2022-12-04T15:31:11.760Z,99253.13
2022-12-04T15:33:38.645Z,99260.72
2022-12-04T15:36:06.569Z,99258.00
2022-12-04T15:38:34.025Z,99265.13
2022-12-04T15:41:01.427Z,99265.84
2022-12-04T15:43:30.645Z,99255.22
2022-12-04T15:45:57.551Z,99256.53
2022-12-04T15:48:24.602Z,99256.84
2022-12-04T15:50:51.538Z,99261.75
2022-12-04T15:53:18.500Z,99256.44
2022-12-04T15:55:45.546Z,99259.63
2022-12-04T15:58:12.642Z,99261.75
2022-12-04T16:00:39.517Z,99275.28
2022-12-04T16:03:07.264Z,99268.72
2022-12-04T16:05:33.867Z,99274.47
2022-12-04T16:08:01.050Z,99280.19
2022-12-04T16:10:28.493Z,99269.25
2022-12-04T16:12:55.480Z,99276.47
2022-12-04T16:15:22.421Z,99279.63
2022-12-04T16:17:49.169Z,99278.53
2022-12-04T16:20:16.640Z,99290.06
2022-12-04T16:22:44.619Z,99279.53
2022-12-04T16:25:12.504Z,99273.88
2022-12-04T16:27:39.293Z,99278.41
2022-12-04T16:30:06.231Z,99281.28
2022-12-04T16:32:33.152Z,99287.00
2022-12-04T16:35:00.139Z,99289.84
2022-12-04T16:37:28.129Z,99292.88
2022-12-04T16:39:54.597Z,99299.03
2022-12-04T16:42:21.522Z,99305.50
2022-12-04T16:44:47.921Z,99313.69
2022-12-04T16:47:14.876Z,99304.84
2022-12-04T16:49:42.217Z,99307.59
2022-12-04T16:52:09.258Z,99313.44
2022-12-04T16:54:36.205Z,99305.13
2022-12-04T16:57:07.188Z,99314.09
2022-12-04T16:59:34.207Z,99316.31
2022-12-04T17:02:02.133Z,99305.25
2022-12-04T17:04:29.478Z,99305.63
2022-12-04T17:06:56.612Z,99302.78
2022-12-04T17:09:28.127Z,99300.44
2022-12-04T17:11:55.019Z,99298.13
2022-12-04T17:14:21.677Z,99295.66
2022-12-04T17:16:48.442Z,99292.72
2022-12-04T17:19:21.002Z,99285.41
2022-12-04T17:21:48.035Z,99289.94
2022-12-04T17:24:15.118Z,99298.22
2022-12-04T17:26:42.853Z,99295.56
2022-12-04T17:29:13.055Z,99302.88
2022-12-04T17:31:39.629Z,99301.59
2022-12-04T17:34:06.336Z,99297.56
2022-12-04T17:36:33.278Z,99304.25
2022-12-04T17:39:00.633Z,99297.84
2022-12-04T17:41:27.414Z,99309.63
2022-12-04T17:43:54.265Z,99309.38
2022-12-04T17:46:21.556Z,99314.78
2022-12-04T17:48:52.313Z,99317.19
2022-12-04T17:51:21.256Z,99310.78
2022-12-04T17:53:47.766Z,99304.56
2022-12-04T17:56:14.631Z,99300.75
2022-12-04T17:58:41.507Z,99295.75
2022-12-04T18:01:10.730Z,99308.31
2022-12-04T18:03:37.849Z,99302.84
2022-12-04T18:08:49.834Z,99311.84
2022-12-04T18:11:18.565Z,99304.16
2022-12-04T18:13:50.376Z,99300.28
2022-12-04T18:16:22.370Z,99301.91
2022-12-04T18:18:49.644Z,99304.09
2022-12-04T18:21:18.609Z,99309.75
2022-12-04T18:23:48.149Z,99305.97
2022-12-04T18:26:14.823Z,99305.78
2022-12-04T18:28:41.832Z,99306.19
2022-12-04T18:31:08.801Z,99313.41
2022-12-04T18:33:35.895Z,99316.88
2022-12-04T18:36:03.900Z,99310.75
2022-12-04T18:38:30.990Z,99309.22
2022-12-04T18:40:59.111Z,99305.41
2022-12-04T18:43:28.936Z,99308.41
2022-12-04T18:46:01.432Z,99304.66
2022-12-04T18:48:33.042Z,99299.84
2022-12-04T18:51:02.040Z,99303.06
2022-12-04T18:53:28.578Z,99302.47
2022-12-04T18:55:54.951Z,99302.16
2022-12-04T18:58:21.675Z,99295.94
2022-12-04T19:00:48.452Z,99291.81
2022-12-04T19:03:16.129Z,99290.31
2022-12-04T19:05:43.112Z,99290.22
2022-12-04T19:08:11.344Z,99287.78
2022-12-04T19:10:38.463Z,99299.72
2022-12-04T19:13:05.707Z,99296.03
2022-12-04T19:15:32.757Z,99298.50
2022-12-04T19:18:00.565Z,99292.13
2022-12-04T19:20:27.993Z,99279.44
2022-12-04T19:23:08.297Z,99282.41
2022-12-04T19:25:35.314Z,99272.78
2022-12-04T19:28:03.049Z,99273.59
2022-12-04T19:30:34.647Z,99278.31
2022-12-04T19:33:07.888Z,99279.81
2022-12-04T19:35:36.372Z,99282.75
2022-12-04T19:38:03.576Z,99276.97
2022-12-04T19:40:30.508Z,99276.22
2022-12-04T19:43:02.644Z,99279.88
2022-12-04T19:45:30.067Z,99287.72
2022-12-04T19:47:58.284Z,99283.28
2022-12-04T19:50:28.144Z,99286.22
2022-12-04T19:52:55.302Z,99284.75
2022-12-04T19:55:23.314Z,99281.44
2022-12-04T19:57:52.034Z,99272.31
2022-12-04T20:00:20.192Z,99275.66
2022-12-04T20:02:47.236Z,99281.16
2022-12-04T20:05:14.473Z,99275.41
2022-12-04T20:07:43.328Z,99272.50
2022-12-04T20:10:12.686Z,99263.47
2022-12-04T20:12:41.776Z,99257.22
2022-12-04T20:15:09.306Z,99258.84
2022-12-04T20:17:36.100Z,99252.25
2022-12-04T20:20:03.446Z,99252.53
2022-12-04T20:22:31.202Z,99247.78
2022-12-04T20:24:58.929Z,99241.75
2022-12-04T20:27:25.877Z,99244.09
2022-12-04T20:29:54.017Z,99229.47
2022-12-04T20:32:21.122Z,99217.59
2022-12-04T20:34:48.459Z,99216.50
2022-12-04T20:37:15.601Z,99217.38
2022-12-04T20:39:50.095Z,99230.41
2022-12-04T20:42:17.626Z,99226.91
2022-12-04T20:44:45.183Z,99225.00
2022-12-04T20:47:12.991Z,99226.88
2022-12-04T20:49:39.796Z,99230.53
2022-12-04T20:52:06.793Z,99217.78
2022-12-04T20:54:40.790Z,99226.91
2022-12-04T20:57:08.036Z,99238.00
2022-12-04T20:59:34.907Z,99234.63
2022-12-04T21:02:04.453Z,99233.84
2022-12-04T21:04:32.494Z,99229.72
2022-12-04T21:06:59.522Z,99214.66
2022-12-04T21:09:26.682Z,99204.47
2022-12-04T21:11:54.313Z,99205.84
2022-12-04T21:14:22.826Z,99205.06
2022-12-04T21:16:49.199Z,99202.31
2022-12-04T21:19:16.053Z,99196.06
2022-12-04T21:21:43.403Z,99202.19
2022-12-04T21:24:09.848Z,99186.56
2022-12-04T21:26:36.226Z,99192.03
2022-12-04T21:29:03.391Z,99196.28
2022-12-04T21:31:29.963Z,99203.72
2022-12-04T21:33:56.403Z,99211.06
2022-12-04T21:36:22.856Z,99195.50
2022-12-04T21:38:49.234Z,99206.16
2022-12-04T21:41:15.810Z,99198.63
2022-12-04T21:43:42.558Z,99196.59
2022-12-04T21:46:09.680Z,99188.56
2022-12-04T21:48:37.893Z,99187.97
2022-12-04T21:51:04.416Z,99182.75
2022-12-04T21:53:30.891Z,99173.81
2022-12-04T21:55:57.311Z,99168.13
2022-12-04T21:58:23.844Z,99156.19
2022-12-04T22:00:50.288Z,99154.56
2022-12-04T22:03:16.823Z,99158.25
2022-12-04T22:05:45.007Z,99140.78
2022-12-04T22:08:11.462Z,99132.03
2022-12-04T22:10:38.355Z,99119.88
2022-12-04T22:13:06.849Z,99107.34
2022-12-04T22:15:36.805Z,99120.72
2022-12-04T22:18:05.853Z,99119.16
2022-12-04T22:20:32.598Z,99135.56
2022-12-04T22:22:59.053Z,99136.75
2022-12-04T22:25:25.424Z,99129.59
2022-12-04T22:27:52.095Z,99116.72
2022-12-04T22:30:23.656Z,99126.34
2022-12-04T22:32:53.361Z,99109.75
2022-12-04T22:35:22.363Z,99121.63
2022-12-04T22:37:48.863Z,99109.06
2022-12-04T22:40:15.463Z,99085.66
2022-12-04T22:42:41.973Z,99060.22
2022-12-04T22:45:08.391Z,99074.69
2022-12-04T22:47:35.037Z,99093.38
2022-12-04T22:50:01.974Z,99068.56
2022-12-04T22:52:28.641Z,99079.81
2022-12-04T22:54:55.088Z,99071.88
2022-12-04T22:57:21.523Z,99071.81
2022-12-04T22:59:50.227Z,99071.13
2022-12-04T23:02:16.675Z,99055.56
2022-12-04T23:04:43.287Z,99067.06
2022-12-04T23:07:12.018Z,99075.22
2022-12-04T23:09:38.893Z,99057.75
2022-12-04T23:12:05.259Z,99055.59
2022-12-04T23:14:31.690Z,99056.63
2022-12-04T23:16:58.255Z,99039.00
2022-12-04T23:19:25.821Z,99052.16
2022-12-04T23:21:57.268Z,99036.53
2022-12-04T23:24:23.935Z,99036.19
2022-12-04T23:26:52.801Z,99035.84
2022-12-04T23:29:44.815Z,99029.94
2022-12-04T23:32:07.177Z,99040.94
2022-12-04T23:34:33.718Z,99053.00
2022-12-04T23:37:00.173Z,99051.94
2022-12-04T23:39:26.896Z,99049.69
2022-12-04T23:41:53.380Z,99062.19
2022-12-04T23:44:21.012Z,99063.94
2022-12-04T23:46:47.613Z,99066.19
2022-12-04T23:49:23.166Z,99070.56
2022-12-04T23:51:49.680Z,99067.84
2022-12-04T23:54:21.360Z,99067.34
2022-12-04T23:56:47.800Z,99061.84
2022-12-04T23:59:14.465Z,99063.63
